Time;durP1;ratioP1;P1;durP2;ratioP2;P2;SDS_P1;SDS_P2;PMS_P1;PMS_P2;Temp;Humidity;BMP_temperature;BMP_pressure;BME280_temperature;BME280_humidity;BME280_pressure;Samples;Min_cycle;Max_cycle;Signal;HPM_P1;HPM_P2
2022/01/06 00:00:08;;;;;;;1.53;0.80;;;20.40;52.00;;;;;;4970558;28;20457;-75
2022/01/06 00:02:34;;;;;;;1.57;1.07;;;20.20;51.90;;;;;;4970212;28;20614;-75
2022/01/06 00:04:59;;;;;;;3.43;1.10;;;20.20;52.10;;;;;;4970708;28;20870;-75
2022/01/06 00:07:25;;;;;;;3.20;2.90;;;20.20;51.90;;;;;;4970310;28;20506;-75
2022/01/06 00:09:52;;;;;;;2.60;1.13;;;20.20;52.00;;;;;;4970574;28;20305;-75
2022/01/06 00:12:20;;;;;;;4.77;1.37;;;20.20;52.00;;;;;;4970647;28;20669;-75
2022/01/06 00:15:06;;;;;;;1.30;1.20;;;20.20;52.00;;;;;;4970995;28;20453;-75
2022/01/06 00:25:29;;;;;;;1.00;0.90;;;20.50;52.10;;;;;;4970591;28;20849;-75
2022/01/06 00:27:54;;;;;;;1.23;0.90;;;20.00;51.90;;;;;;4970278;28;20602;-75
2022/01/06 00:30:20;;;;;;;1.27;1.00;;;20.10;52.00;;;;;;4970355;28;20253;-75
2022/01/06 00:32:45;;;;;;;2.10;1.20;;;20.00;51.90;;;;;;4970455;28;20171;-75
2022/01/06 00:35:11;;;;;;;2.20;0.83;;;19.70;61.90;;;;;;4970457;28;20178;-75
2022/01/06 00:37:36;;;;;;;0.80;0.80;;;20.20;52.20;;;;;;4970297;28;20241;-75
2022/01/06 00:40:02;;;;;;;1.00;0.77;;;20.30;52.20;;;;;;4968852;28;20213;-75
2022/01/06 00:42:28;;;;;;;3.30;1.60;;;20.10;52.10;;;;;;4970127;28;20318;-75
2022/01/06 00:44:53;;;;;;;0.93;0.93;;;20.10;52.10;;;;;;4970266;28;20886;-75
2022/01/06 00:47:20;;;;;;;3.33;1.20;;;20.00;52.00;;;;;;4970069;28;20610;-75
2022/01/06 00:49:46;;;;;;;1.40;1.30;;;20.20;52.20;;;;;;4970219;28;20244;-75
2022/01/06 00:52:12;;;;;;;1.17;1.07;;;20.10;52.10;;;;;;4970170;28;20430;-75
2022/01/06 00:54:39;;;;;;;1.90;0.90;;;20.00;52.00;;;;;;4969851;28;20578;-75
2022/01/06 00:57:04;;;;;;;1.63;0.83;;;20.40;52.30;;;;;;4969711;28;20435;-75
2022/01/06 00:59:30;;;;;;;1.13;1.13;;;19.90;61.40;;;;;;4977544;28;20460;-75
2022/01/06 01:01:56;;;;;;;1.43;1.13;;;;;;;;;;4993346;28;20571;-75
2022/01/06 01:04:22;;;;;;;1.80;0.80;;;20.00;51.60;;;;;;4993661;28;20188;-75
2022/01/06 01:06:47;;;;;;;3.13;1.10;;;20.70;52.40;;;;;;4984448;28;20425;-75
2022/01/06 01:09:13;;;;;;;1.63;1.37;;;20.10;52.10;;;;;;4972651;28;20219;-75
2022/01/06 01:11:39;;;;;;;2.60;1.00;;;20.20;52.20;;;;;;4973941;28;20194;-75
2022/01/06 01:14:55;;;;;;;0.80;0.80;;;20.30;52.30;;;;;;4973805;28;20233;-75
2022/01/06 01:16:57;;;;;;;2.50;0.90;;;20.00;52.10;;;;;;4965874;28;20355;-75
2022/01/06 01:19:23;;;;;;;1.37;1.07;;;20.20;52.20;;;;;;4974193;28;20442;-75
2022/01/06 01:21:49;;;;;;;1.20;1.10;;;20.00;52.20;;;;;;4973520;28;20512;-75
2022/01/06 01:24:15;;;;;;;1.03;0.93;;;20.30;52.30;;;;;;4973977;28;20469;-75
2022/01/06 01:26:41;;;;;;;1.60;1.00;;;20.00;52.20;;;;;;4973854;28;20414;-75
2022/01/06 01:29:13;;;;;;;1.10;0.80;;;19.90;52.10;;;;;;4973898;28;20489;-75
2022/01/06 01:31:44;;;;;;;1.10;1.10;;;20.00;52.80;;;;;;4973968;28;20449;-75
2022/01/06 01:34:10;;;;;;;0.87;0.87;;;20.40;52.40;;;;;;4974092;28;20547;-75
2022/01/06 01:36:36;;;;;;;1.10;1.00;;;19.50;52.00;;;;;;4975852;28;20417;-75
2022/01/06 01:39:03;;;;;;;1.37;1.10;;;20.30;52.40;;;;;;4975257;28;20800;-75
2022/01/06 01:41:29;;;;;;;1.30;1.20;;;19.00;51.80;;;;;;4974926;28;20473;-75
2022/01/06 01:43:55;;;;;;;0.80;0.80;;;20.70;52.70;;;;;;4974965;28;20429;-75
2022/01/06 01:46:28;;;;;;;1.00;1.00;;;20.20;63.10;;;;;;4974759;28;20422;-75
2022/01/06 01:49:27;;;;;;;1.93;1.00;;;19.90;52.20;;;;;;4974837;28;20414;-75
2022/01/06 01:51:44;;;;;;;1.13;0.67;;;19.90;52.30;;;;;;4974553;28;20449;-75
2022/01/06 01:54:10;;;;;;;1.33;1.00;;;20.10;52.40;;;;;;4973797;28;20592;-75
2022/01/06 01:56:37;;;;;;;0.90;0.90;;;20.00;52.30;;;;;;4973405;28;20441;-74
2022/01/06 01:59:03;;;;;;;0.90;0.90;;;20.00;52.40;;;;;;4976661;28;20449;-75
2022/01/06 02:01:29;;;;;;;1.37;1.27;;;20.00;52.40;;;;;;4991583;28;20503;-74
2022/01/06 02:03:54;;;;;;;1.10;1.00;;;19.90;52.40;;;;;;4992066;28;20559;-76
2022/01/06 02:06:20;;;;;;;1.47;1.20;;;20.30;52.50;;;;;;4974014;28;20205;-75
2022/01/06 02:08:46;;;;;;;1.20;1.10;;;;;;;;;;4972267;28;20588;-75
2022/01/06 02:11:11;;;;;;;1.13;0.97;;;19.90;51.80;;;;;;4971733;28;20198;-76
2022/01/06 02:13:50;;;;;;;1.80;1.03;;;20.00;63.70;;;;;;4971932;28;20864;-75
2022/01/06 02:16:21;;;;;;;1.20;1.20;;;20.00;52.40;;;;;;4971722;28;20658;-75
2022/01/06 02:18:48;;;;;;;1.53;0.90;;;19.90;52.40;;;;;;4971823;28;20438;-75
2022/01/06 02:21:14;;;;;;;2.40;1.30;;;20.30;52.60;;;;;;4971725;28;20512;-75
2022/01/06 02:23:39;;;;;;;1.20;1.10;;;19.90;52.50;;;;;;4971566;28;20462;-75
2022/01/06 02:26:05;;;;;;;1.67;0.80;;;19.90;52.50;;;;;;4971438;28;20651;-75
2022/01/06 02:28:30;;;;;;;1.30;1.07;;;19.90;52.50;;;;;;4971412;28;20210;-75
2022/01/06 02:30:57;;;;;;;1.23;1.23;;;20.20;52.80;;;;;;4971413;28;20202;-75
2022/01/06 02:33:24;;;;;;;0.70;0.70;;;20.30;52.70;;;;;;4969866;28;20183;-75
2022/01/06 02:35:50;;;;;;;1.10;1.00;;;21.00;53.10;;;;;;4971311;28;20454;-75
2022/01/06 02:38:17;;;;;;;1.23;0.80;;;19.80;52.40;;;;;;4971418;28;20849;-75
2022/01/06 02:40:44;;;;;;;1.27;1.00;;;20.20;52.70;;;;;;4971359;28;20451;-75
2022/01/06 02:43:09;;;;;;;1.00;1.00;;;20.20;52.70;;;;;;4971075;28;20864;-75
2022/01/06 02:45:36;;;;;;;2.43;1.43;;;19.90;52.60;;;;;;4971179;28;20501;-75
2022/01/06 02:48:08;;;;;;;0.87;0.87;;;20.20;52.80;;;;;;4971255;28;20199;-75
2022/01/06 02:50:38;;;;;;;0.70;0.70;;;19.90;52.60;;;;;;4971119;28;20464;-75
2022/01/06 02:53:08;;;;;;;2.30;1.10;;;19.90;52.60;;;;;;4931286;28;1170743;-74
2022/01/06 02:55:35;;;;;;;1.40;1.03;;;19.90;52.70;;;;;;4971992;28;20867;-75
2022/01/06 02:58:01;;;;;;;5.23;0.97;;;19.90;52.60;;;;;;4972364;28;20882;-75
2022/01/06 03:00:28;;;;;;;2.07;0.93;;;20.10;52.80;;;;;;4986839;28;20456;-75
2022/01/06 03:02:53;;;;;;;0.73;0.73;;;19.90;52.80;;;;;;4991545;28;20315;-75
2022/01/06 03:05:19;;;;;;;1.13;1.03;;;19.90;52.70;;;;;;4981694;28;20426;-75
2022/01/06 03:07:46;;;;;;;1.57;0.80;;;19.80;52.60;;;;;;4971767;28;20183;-75
2022/01/06 03:10:14;;;;;;;1.27;1.10;;;19.70;52.60;;;;;;4971926;28;20194;-75
2022/01/06 03:12:41;;;;;;;2.70;1.20;;;20.20;52.90;;;;;;4971831;28;20461;-75
2022/01/06 03:15:11;;;;;;;0.90;0.90;;;19.70;52.70;;;;;;4971875;28;20485;-75
2022/01/06 03:17:39;;;;;;;1.30;0.87;;;20.00;52.80;;;;;;4971614;28;20520;-75
2022/01/06 03:20:08;;;;;;;1.73;1.37;;;20.10;52.90;;;;;;4971771;28;20434;-75
2022/01/06 03:22:34;;;;;;;1.27;1.27;;;19.90;52.80;;;;;;4970552;28;20473;-75
2022/01/06 03:25:00;;;;;;;1.77;1.10;;;20.10;52.90;;;;;;4971669;28;20500;-75
2022/01/06 03:27:26;;;;;;;1.57;1.00;;;20.20;53.00;;;;;;4971369;28;20217;-75
2022/01/06 03:29:51;;;;;;;0.60;0.60;;;20.10;52.90;;;;;;4971554;28;20506;-75
2022/01/06 03:32:18;;;;;;;1.17;0.70;;;19.80;53.20;;;;;;4971599;28;20178;-75
2022/01/06 03:34:44;;;;;;;0.80;0.80;;;19.80;52.80;;;;;;4971669;28;20221;-75
2022/01/06 03:37:10;;;;;;;0.70;0.70;;;19.80;52.80;;;;;;4971291;28;20429;-75
2022/01/06 03:39:36;;;;;;;1.00;1.00;;;20.00;63.50;;;;;;4971369;28;20557;-75
2022/01/06 03:42:02;;;;;;;1.83;1.03;;;19.70;52.80;;;;;;4971444;28;20553;-75
2022/01/06 03:44:28;;;;;;;0.90;0.90;;;19.80;52.90;;;;;;4971231;28;20178;-75
2022/01/06 03:46:54;;;;;;;4.93;0.93;;;19.80;52.90;;;;;;4970762;28;20530;-75
2022/01/06 03:49:20;;;;;;;1.40;1.30;;;19.80;52.90;;;;;;4971315;28;20674;-75
2022/01/06 03:51:46;;;;;;;1.83;1.00;;;19.90;52.90;;;;;;4970676;28;20207;-75
2022/01/06 03:54:12;;;;;;;0.93;0.80;;;19.80;52.90;;;;;;4971143;28;20445;-75
2022/01/06 03:56:38;;;;;;;1.63;0.80;;;19.80;52.90;;;;;;4970885;28;20896;-75
2022/01/06 03:59:04;;;;;;;0.90;0.90;;;20.10;53.10;;;;;;4974372;28;20182;-75
2022/01/06 04:01:30;;;;;;;3.23;1.17;;;19.80;52.90;;;;;;4990353;28;20336;-75
2022/01/06 04:03:56;;;;;;;0.80;0.80;;;19.80;52.90;;;;;;4989364;28;20499;-73
2022/01/06 04:06:21;;;;;;;1.03;1.03;;;19.80;53.00;;;;;;4970424;28;20607;-73
2022/01/06 04:08:47;;;;;;;1.00;0.90;;;20.10;53.10;;;;;;4970705;28;20264;-72
2022/01/06 04:11:12;;;;;;;0.73;0.73;;;19.80;53.00;;;;;;4970470;28;20300;-73
2022/01/06 04:13:38;;;;;;;0.93;0.83;;;19.80;53.00;;;;;;4970212;28;20667;-72
2022/01/06 04:16:08;;;;;;;1.90;0.93;;;19.90;53.10;;;;;;4970632;28;20178;-73
2022/01/06 04:18:34;;;;;;;1.10;1.00;;;;;;;;;;4964974;28;20684;-72
2022/01/06 04:21:00;;;;;;;1.10;1.00;;;19.80;52.50;;;;;;4966745;28;20500;-72
2022/01/06 04:23:25;;;;;;;1.57;1.27;;;19.80;53.10;;;;;;4970376;28;20966;-72
2022/01/06 04:25:51;;;;;;;1.33;1.23;;;20.30;53.30;;;;;;4967258;28;20650;-73
2022/01/06 04:28:16;;;;;;;0.90;0.90;;;20.20;53.30;;;;;;4970049;28;20587;-73
2022/01/06 04:30:42;;;;;;;3.33;0.90;;;20.20;53.30;;;;;;4970369;28;20733;-72
2022/01/06 04:33:07;;;;;;;0.90;0.90;;;19.80;53.10;;;;;;4970239;28;20236;-73
2022/01/06 04:35:33;;;;;;;0.90;0.90;;;19.80;53.10;;;;;;4970545;28;20669;-72
2022/01/06 04:37:59;;;;;;;0.70;0.70;;;19.70;53.00;;;;;;4970444;28;20270;-73
2022/01/06 04:40:24;;;;;;;1.23;1.10;;;19.90;53.10;;;;;;4970466;28;20198;-72
2022/01/06 04:42:50;;;;;;;0.97;0.97;;;19.70;53.00;;;;;;4970263;28;20658;-73
2022/01/06 04:45:15;;;;;;;1.17;1.00;;;20.10;53.20;;;;;;4969896;28;20183;-72
2022/01/06 04:47:41;;;;;;;1.27;1.27;;;19.70;53.00;;;;;;4970110;28;20277;-72
2022/01/06 04:50:07;;;;;;;1.20;1.10;;;20.00;53.40;;;;;;4970018;28;20262;-72
2022/01/06 04:52:33;;;;;;;1.13;0.87;;;19.70;53.00;;;;;;4969934;28;20194;-73
2022/01/06 04:54:59;;;;;;;0.67;0.67;;;19.70;53.00;;;;;;4968761;28;20197;-72
2022/01/06 04:57:24;;;;;;;2.30;1.00;;;19.90;53.10;;;;;;4969710;28;20183;-72
2022/01/06 04:59:50;;;;;;;2.00;1.10;;;19.70;53.00;;;;;;4979865;28;20198;-73
2022/01/06 05:02:16;;;;;;;1.83;1.30;;;19.70;53.00;;;;;;4989385;28;20206;-73
2022/01/06 05:04:41;;;;;;;1.20;1.10;;;19.80;53.20;;;;;;4979003;28;20183;-72
2022/01/06 05:07:07;;;;;;;4.00;1.10;;;19.90;53.10;;;;;;4970125;28;20185;-72
2022/01/06 05:09:32;;;;;;;1.70;0.90;;;19.60;59.90;;;;;;4970125;28;20185;-73
2022/01/06 05:11:58;;;;;;;0.80;0.80;;;20.20;53.30;;;;;;4970037;28;20719;-72
2022/01/06 05:14:24;;;;;;;1.73;1.10;;;19.60;53.00;;;;;;4969877;28;20179;-73
2022/01/06 05:16:49;;;;;;;2.97;0.97;;;19.60;53.00;;;;;;4969845;28;20248;-72
2022/01/06 05:19:15;;;;;;;1.67;0.93;;;19.70;53.10;;;;;;4969909;28;20175;-72
2022/01/06 05:21:40;;;;;;;2.03;1.60;;;19.50;53.20;;;;;;4969901;28;20236;-72
2022/01/06 05:24:12;;;;;;;0.90;0.90;;;19.70;53.10;;;;;;4969880;28;20183;-72
2022/01/06 05:26:39;;;;;;;1.00;1.00;;;19.70;53.20;;;;;;4970131;28;20570;-72
2022/01/06 05:29:10;;;;;;;2.10;1.23;;;19.90;53.20;;;;;;4969903;28;20524;-72
2022/01/06 05:31:35;;;;;;;1.00;0.90;;;19.50;59.80;;;;;;4969843;28;20921;-72
2022/01/06 05:34:01;;;;;;;1.00;0.60;;;19.70;53.20;;;;;;4969945;28;20467;-72
2022/01/06 05:36:27;;;;;;;1.43;1.10;;;19.60;53.20;;;;;;4969785;28;20190;-72
2022/01/06 05:38:52;;;;;;;1.23;1.13;;;19.70;53.20;;;;;;4969870;28;20709;-72
2022/01/06 05:41:21;;;;;;;3.07;1.00;;;19.70;53.20;;;;;;4969388;28;20194;-72
2022/01/06 05:43:47;;;;;;;1.10;0.90;;;19.70;53.20;;;;;;4969301;28;20241;-72
2022/01/06 05:46:12;;;;;;;0.90;0.80;;;19.70;53.30;;;;;;4970829;28;20914;-73
2022/01/06 05:48:38;;;;;;;1.37;1.10;;;19.50;53.10;;;;;;4972291;28;20186;-73
2022/01/06 05:51:04;;;;;;;1.50;0.90;;;19.70;53.20;;;;;;4973041;28;20233;-72
2022/01/06 05:53:30;;;;;;;1.03;1.03;;;19.70;53.30;;;;;;4972611;28;20206;-72
2022/01/06 05:55:55;;;;;;;3.13;1.23;;;19.70;53.30;;;;;;4972624;28;20204;-73
2022/01/06 05:58:21;;;;;;;0.90;0.90;;;19.80;53.30;;;;;;4972495;28;20433;-72
2022/01/06 06:00:48;;;;;;;1.00;0.90;;;19.90;53.40;;;;;;4990264;28;20202;-73
2022/01/06 06:03:14;;;;;;;1.33;1.23;;;;;;;;;;4974846;28;20241;-73
2022/01/06 06:05:41;;;;;;;2.90;1.30;;;19.70;52.80;;;;;;4972664;28;20457;-72
2022/01/06 06:08:07;;;;;;;1.20;0.90;;;20.00;53.40;;;;;;4972346;28;20513;-73
2022/01/06 06:10:33;;;;;;;0.80;0.80;;;19.60;53.20;;;;;;4972910;28;20461;-72
2022/01/06 06:12:58;;;;;;;1.00;0.90;;;19.70;53.30;;;;;;4971876;28;20485;-73
2022/01/06 06:15:24;;;;;;;0.93;0.63;;;19.70;53.30;;;;;;4972800;28;20654;-73
2022/01/06 06:17:49;;;;;;;1.17;1.07;;;19.70;53.30;;;;;;4972354;28;20195;-72
2022/01/06 06:20:15;;;;;;;2.00;0.90;;;19.50;53.20;;;;;;4972494;28;20285;-73
2022/01/06 06:22:41;;;;;;;2.90;1.30;;;19.80;53.40;;;;;;4970968;28;20210;-73
2022/01/06 06:25:07;;;;;;;1.50;1.20;;;19.60;53.20;;;;;;4972700;28;20210;-74
2022/01/06 06:27:33;;;;;;;0.90;0.80;;;19.70;53.30;;;;;;4972797;28;20414;-75
2022/01/06 06:29:58;;;;;;;0.87;0.87;;;19.60;53.30;;;;;;4972764;28;20442;-75
2022/01/06 06:32:26;;;;;;;1.17;1.10;;;19.70;53.30;;;;;;4972537;28;20202;-75
2022/01/06 06:34:53;;;;;;;0.93;0.93;;;19.70;53.40;;;;;;4972852;28;20191;-75
2022/01/06 06:37:19;;;;;;;1.20;1.10;;;19.50;53.20;;;;;;4968787;28;20561;-75
2022/01/06 06:39:44;;;;;;;1.07;1.07;;;19.70;65.30;;;;;;4972617;28;20457;-75
2022/01/06 06:42:10;;;;;;;3.27;1.10;;;20.10;53.50;;;;;;4968420;28;20466;-73
2022/01/06 06:44:36;;;;;;;1.30;1.20;;;19.60;53.20;;;;;;4964516;28;20187;-73
2022/01/06 06:47:02;;;;;;;1.80;1.70;;;19.60;52.50;;;;;;4970232;28;20178;-72
2022/01/06 06:49:29;;;;;;;1.97;1.83;;;19.40;57.20;;;;;;4971288;28;20298;-74
2022/01/06 06:51:54;;;;;;;6.73;2.70;;;19.30;50.10;;;;;;4972616;28;20277;-71
2022/01/06 06:54:20;;;;;;;2.70;2.40;;;19.00;46.50;;;;;;4972164;28;20513;-73
2022/01/06 06:56:46;;;;;;;3.83;3.10;;;18.60;43.60;;;;;;4971198;28;20952;-73
2022/01/06 06:59:11;;;;;;;7.60;2.83;;;18.30;44.00;;;;;;4971011;28;20270;-73
2022/01/06 07:01:37;;;;;;;6.10;2.40;;;17.80;45.60;;;;;;4971540;28;20732;-75
2022/01/06 07:04:02;;;;;;;3.27;2.20;;;17.90;46.70;;;;;;4973055;28;20253;-74
2022/01/06 07:06:28;;;;;;;2.70;2.13;;;17.80;47.10;;;;;;4972828;28;20182;-75
2022/01/06 07:08:53;;;;;;;6.23;3.23;;;18.60;48.00;;;;;;4978153;28;20181;-74
2022/01/06 07:11:22;;;;;;;2.53;2.20;;;17.80;48.00;;;;;;4971730;28;20704;-75
2022/01/06 07:13:48;;;;;;;4.10;2.33;;;19.10;48.90;;;;;;4979159;28;20206;-74
2022/01/06 07:16:13;;;;;;;4.63;2.20;;;18.00;48.50;;;;;;4979431;28;20457;-75
2022/01/06 07:18:39;;;;;;;6.63;2.63;;;18.10;48.70;;;;;;4981949;28;20550;-75
2022/01/06 07:21:04;;;;;;;2.77;1.83;;;19.10;49.30;;;;;;4986245;28;20202;-75
2022/01/06 07:23:30;;;;;;;1.97;1.87;;;18.40;49.10;;;;;;4971749;28;20222;-75
2022/01/06 07:25:55;;;;;;;5.40;2.17;;;18.50;49.30;;;;;;4971912;28;20190;-75
2022/01/06 07:28:21;;;;;;;2.90;1.80;;;18.30;49.20;;;;;;4971443;28;20178;-75
2022/01/06 07:30:47;;;;;;;2.13;1.93;;;18.60;49.40;;;;;;4968013;28;20205;-75
2022/01/06 07:33:12;;;;;;;2.30;1.63;;;18.60;49.40;;;;;;4969846;28;20186;-73
2022/01/06 07:35:38;;;;;;;2.53;1.60;;;18.70;49.50;;;;;;4984477;28;20183;-73
2022/01/06 07:38:03;;;;;;;4.50;2.13;;;18.60;49.40;;;;;;4971487;28;20206;-73
2022/01/06 07:40:29;;;;;;;1.93;1.50;;;20.30;50.30;;;;;;4969730;28;20618;-73
2022/01/06 07:42:54;;;;;;;1.57;1.40;;;18.80;49.70;;;;;;4970977;28;20370;-73
2022/01/06 07:45:20;;;;;;;1.83;1.70;;;18.90;49.70;;;;;;4970571;28;20911;-73
2022/01/06 07:48:01;;;;;;;1.87;1.70;;;19.30;50.00;;;;;;4971025;28;20178;-73
2022/01/06 07:50:30;;;;;;;1.60;1.50;;;19.10;49.90;;;;;;4970965;28;20446;-73
2022/01/06 07:52:56;;;;;;;1.70;1.60;;;19.00;49.90;;;;;;4970729;28;20949;-73
2022/01/06 07:55:22;;;;;;;1.63;1.40;;;19.80;50.30;;;;;;4970729;28;20466;-73
2022/01/06 07:57:49;;;;;;;1.43;1.33;;;19.10;49.90;;;;;;4971013;28;21102;-73
2022/01/06 08:00:15;;;;;;;1.93;1.30;;;19.30;50.00;;;;;;4971673;28;20289;-73
2022/01/06 08:02:41;;;;;;;2.10;1.87;;;19.10;50.00;;;;;;4971069;28;20453;-73
2022/01/06 08:05:10;;;;;;;1.73;1.60;;;19.10;50.00;;;;;;4970856;28;20175;-73
2022/01/06 08:07:36;;;;;;;2.23;1.93;;;19.20;50.00;;;;;;4970780;28;20183;-73
2022/01/06 08:10:02;;;;;;;2.00;1.50;;;19.20;50.10;;;;;;4970645;28;20453;-73
2022/01/06 08:12:27;;;;;;;3.13;2.10;;;19.20;50.10;;;;;;4970190;28;20422;-73
2022/01/06 08:14:53;;;;;;;1.70;1.40;;;19.70;50.40;;;;;;4970905;28;21141;-73
2022/01/06 08:17:18;;;;;;;3.00;1.47;;;19.20;50.20;;;;;;4970740;28;20195;-73
2022/01/06 08:19:45;;;;;;;1.60;1.50;;;19.20;61.90;;;;;;4969103;28;20182;-73
2022/01/06 08:22:10;;;;;;;4.83;1.90;;;20.00;50.60;;;;;;4970821;28;20206;-75
2022/01/06 08:24:36;;;;;;;1.63;1.53;;;19.60;50.30;;;;;;4968725;28;20918;-73
2022/01/06 08:27:08;;;;;;;1.80;1.70;;;19.40;50.40;;;;;;4970380;28;20179;-73
2022/01/06 08:29:40;;;;;;;3.47;1.13;;;19.30;57.40;;;;;;4970210;28;20485;-73
2022/01/06 08:32:06;;;;;;;1.83;1.73;;;19.40;50.30;;;;;;4963655;28;20948;-72
2022/01/06 08:34:34;;;;;;;2.60;1.40;;;19.40;50.30;;;;;;4969454;28;20449;-73
2022/01/06 08:36:59;;;;;;;1.50;1.40;;;19.40;50.30;;;;;;4969780;28;20414;-72
2022/01/06 08:39:25;;;;;;;1.50;1.40;;;19.50;50.40;;;;;;4969510;28;20795;-73
2022/01/06 08:41:51;;;;;;;3.50;1.23;;;19.80;50.70;;;;;;4969333;28;20579;-73
2022/01/06 08:44:17;;;;;;;1.57;1.40;;;19.40;50.40;;;;;;4975761;28;20180;-73
2022/01/06 08:46:42;;;;;;;1.63;1.53;;;19.60;50.70;;;;;;4973837;28;20441;-73
2022/01/06 08:49:11;;;;;;;1.90;1.77;;;20.00;50.70;;;;;;4970416;28;20258;-73
2022/01/06 08:51:38;;;;;;;2.70;1.17;;;19.50;50.70;;;;;;4970143;28;20206;-73
2022/01/06 08:54:04;;;;;;;2.20;1.60;;;19.50;50.50;;;;;;4970121;28;20471;-73
2022/01/06 08:56:29;;;;;;;2.67;1.93;;;19.50;50.50;;;;;;4969929;28;20442;-73
2022/01/06 08:58:55;;;;;;;3.63;2.00;;;19.50;50.60;;;;;;4972648;28;20588;-73
2022/01/06 09:01:21;;;;;;;2.20;1.63;;;19.60;50.60;;;;;;4987042;28;20284;-73
2022/01/06 09:03:46;;;;;;;1.77;1.10;;;19.80;61.90;;;;;;4970050;28;20245;-73
2022/01/06 09:06:12;;;;;;;5.47;1.90;;;19.90;50.90;;;;;;4970610;28;20195;-75
2022/01/06 09:08:38;;;;;;;1.27;1.00;;;19.70;50.80;;;;;;4970791;28;20194;-75
2022/01/06 09:11:04;;;;;;;5.17;1.77;;;19.60;50.80;;;;;;4969144;28;20477;-75
2022/01/06 09:13:29;;;;;;;10.33;2.47;;;19.50;50.90;;;;;;4970160;28;20671;-75
2022/01/06 09:15:55;;;;;;;21.97;2.73;;;19.70;51.00;;;;;;4968521;28;20198;-76
2022/01/06 09:18:20;;;;;;;12.67;3.13;;;19.70;51.10;;;;;;4965991;28;20630;-76
2022/01/06 09:20:46;;;;;;;4.13;2.50;;;19.70;51.10;;;;;;4970167;28;20213;-76
2022/01/06 09:23:12;;;;;;;11.47;3.50;;;20.00;51.40;;;;;;4972930;28;20206;-75
2022/01/06 09:25:37;;;;;;;13.70;3.00;;;19.70;51.40;;;;;;4972259;28;20226;-76
2022/01/06 09:28:03;;;;;;;8.47;4.70;;;20.20;59.00;;;;;;4954803;29;20183;-75
2022/01/06 09:30:29;;;;;;;8.03;2.50;;;19.70;51.50;;;;;;4965716;28;20202;-75
2022/01/06 09:32:54;;;;;;;9.23;2.53;;;19.80;51.60;;;;;;4973995;28;20210;-73
2022/01/06 09:35:21;;;;;;;4.10;2.50;;;20.10;51.70;;;;;;4973402;28;20685;-73
2022/01/06 09:37:47;;;;;;;2.80;2.13;;;20.10;51.80;;;;;;4973290;28;20281;-73
2022/01/06 09:40:13;;;;;;;7.50;2.80;;;20.20;51.80;;;;;;4972873;28;20592;-75
2022/01/06 09:42:41;;;;;;;11.73;4.00;;;19.80;51.70;;;;;;4973128;28;20208;-76
2022/01/06 09:45:08;;;;;;;6.03;2.87;;;20.10;51.80;;;;;;4972736;28;20182;-75
2022/01/06 09:47:34;;;;;;;8.07;2.40;;;19.90;51.70;;;;;;4973008;28;20657;-75
2022/01/06 09:49:59;;;;;;;6.30;2.70;;;20.20;51.90;;;;;;4973194;28;20532;-75
2022/01/06 09:52:25;;;;;;;6.57;2.60;;;19.90;51.70;;;;;;4973363;28;20779;-75
2022/01/06 09:54:51;;;;;;;6.47;2.00;;;20.00;51.80;;;;;;4972326;28;20194;-75
2022/01/06 09:57:17;;;;;;;6.63;2.70;;;19.90;51.80;;;;;;4972766;28;20253;-75
2022/01/06 09:59:44;;;;;;;6.50;2.20;;;20.00;62.90;;;;;;4981429;28;20464;-75
2022/01/06 10:02:16;;;;;;;4.97;2.07;;;20.20;52.00;;;;;;4992701;28;20468;-73
2022/01/06 10:04:43;;;;;;;7.23;2.13;;;19.90;51.80;;;;;;4992771;28;20414;-73
2022/01/06 10:07:10;;;;;;;5.90;2.53;;;20.00;51.80;;;;;;4983522;28;20460;-73
2022/01/06 10:09:39;;;;;;;2.93;2.00;;;19.80;58.60;;;;;;4972273;28;20418;-73
2022/01/06 10:12:10;;;;;;;8.00;2.10;;;20.20;52.00;;;;;;4970744;28;20499;-74
2022/01/06 10:14:45;;;;;;;3.60;2.00;;;20.00;51.90;;;;;;4971762;28;20529;-74
2022/01/06 10:17:14;;;;;;;4.13;2.20;;;20.00;51.80;;;;;;4972616;28;20437;-73
2022/01/06 10:19:41;;;;;;;5.33;1.70;;;19.70;62.20;;;;;;4971252;28;20480;-74
2022/01/06 10:22:18;;;;;;;4.77;2.30;;;18.70;51.10;;;;;;4972600;28;20490;-74
2022/01/06 10:24:45;;;;;;;10.27;2.90;;;20.10;51.90;;;;;;4972112;28;20485;-74
2022/01/06 10:27:13;;;;;;;3.73;2.00;;;20.10;51.90;;;;;;4971232;28;20426;-74
2022/01/06 10:29:43;;;;;;;16.87;3.60;;;20.30;62.50;;;;;;4971290;28;20849;-73
2022/01/06 10:32:11;;;;;;;3.00;2.30;;;20.40;52.00;;;;;;4971842;28;20437;-74
2022/01/06 10:34:40;;;;;;;5.53;1.90;;;20.30;51.90;;;;;;4972333;28;20418;-73
2022/01/06 10:37:27;;;;;;;4.00;2.20;;;20.50;52.00;;;;;;4970714;28;20968;-74
2022/01/06 10:39:57;;;;;;;4.00;2.17;;;20.00;51.70;;;;;;4972103;28;20469;-74
2022/01/06 10:42:24;;;;;;;8.70;1.80;;;20.20;51.70;;;;;;4970714;28;20465;-74
2022/01/06 10:44:58;;;;;;;2.23;1.33;;;20.20;51.70;;;;;;4971687;28;20428;-73
2022/01/06 10:47:36;;;;;;;4.87;2.23;;;20.20;51.70;;;;;;4969724;28;20441;-74
2022/01/06 10:50:13;;;;;;;2.77;1.53;;;20.60;51.90;;;;;;4971622;28;20475;-74
2022/01/06 10:52:40;;;;;;;2.90;2.67;;;20.20;51.70;;;;;;4970959;28;20426;-74
2022/01/06 10:55:17;;;;;;;8.33;2.10;;;20.30;51.70;;;;;;4971979;28;20568;-74
2022/01/06 10:58:16;;;;;;;3.80;2.00;;;20.20;51.60;;;;;;4970722;28;20839;-74
2022/01/06 11:00:48;;;;;;;1.63;1.53;;;20.50;51.70;;;;;;4987754;28;20437;-74
2022/01/06 11:03:15;;;;;;;1.93;1.83;;;20.20;51.60;;;;;;4970639;28;20556;-74
2022/01/06 11:05:43;;;;;;;2.30;1.83;;;20.30;51.60;;;;;;4971190;28;20511;-73
2022/01/06 11:08:09;;;;;;;8.07;2.00;;;20.20;51.60;;;;;;4966646;28;20939;-73
2022/01/06 11:10:39;;;;;;;3.63;2.03;;;20.20;51.60;;;;;;4952758;28;20502;-74
2022/01/06 11:13:06;;;;;;;11.10;2.30;;;20.40;51.70;;;;;;4969717;28;20508;-73
2022/01/06 11:15:32;;;;;;;4.40;2.17;;;20.30;51.70;;;;;;4971254;28;20458;-74
2022/01/06 11:18:01;;;;;;;5.60;1.97;;;20.30;51.70;;;;;;4972085;28;20425;-74
2022/01/06 11:20:27;;;;;;;4.30;1.87;;;20.20;51.60;;;;;;4971112;28;20441;-74
2022/01/06 11:22:57;;;;;;;1.93;1.50;;;20.30;51.70;;;;;;4971074;28;20978;-74
2022/01/06 11:25:34;;;;;;;3.60;2.20;;;20.30;51.70;;;;;;4971348;28;20426;-74
2022/01/06 11:28:07;;;;;;;1.37;1.27;;;20.30;51.70;;;;;;4971083;28;21003;-74
2022/01/06 11:31:11;;;;;;;2.40;1.50;;;20.50;51.80;;;;;;4971306;28;20808;-74
2022/01/06 11:33:41;;;;;;;2.20;2.00;;;20.30;51.70;;;;;;4978610;28;20429;-74
2022/01/06 11:36:19;;;;;;;3.13;1.50;;;20.80;51.90;;;;;;4989720;28;20417;-74
2022/01/06 11:38:49;;;;;;;3.37;2.00;;;20.40;51.70;;;;;;4989738;28;20464;-74
2022/01/06 11:41:15;;;;;;;5.10;1.90;;;20.20;61.50;;;;;;4976169;28;20438;-74
2022/01/06 11:43:44;;;;;;;2.33;1.67;;;20.40;52.20;;;;;;4969824;28;20839;-74
2022/01/06 11:46:10;;;;;;;4.50;2.00;;;20.60;51.70;;;;;;4971312;28;20171;-74
2022/01/06 11:48:50;;;;;;;5.90;1.67;;;20.50;51.60;;;;;;4971512;28;20402;-74
2022/01/06 11:51:31;;;;;;;10.33;1.70;;;20.40;51.50;;;;;;4971190;28;20529;-74
2022/01/06 11:53:58;;;;;;;1.43;1.33;;;20.60;51.50;;;;;;4971004;28;20460;-74
2022/01/06 11:56:25;;;;;;;3.30;1.93;;;20.50;51.50;;;;;;4970682;28;20917;-74
2022/01/06 11:58:59;;;;;;;3.93;2.07;;;20.50;51.50;;;;;;4970461;28;21351;-74
2022/01/06 12:01:24;;;;;;;2.10;1.93;;;20.50;51.40;;;;;;4971647;28;20532;-74
2022/01/06 12:03:50;;;;;;;4.00;1.60;;;20.60;51.60;;;;;;4979093;28;20453;-74
2022/01/06 12:06:27;;;;;;;1.97;1.77;;;20.60;51.40;;;;;;4987909;28;20193;-74
2022/01/06 12:08:54;;;;;;;7.90;1.90;;;20.70;51.50;;;;;;4970854;28;20240;-74
2022/01/06 12:11:27;;;;;;;4.63;1.70;;;20.70;51.40;;;;;;4970554;28;20447;-74
2022/01/06 12:13:56;;;;;;;7.20;2.87;;;20.80;51.40;;;;;;4970519;28;20520;-74
2022/01/06 12:16:30;;;;;;;2.37;2.13;;;21.00;51.40;;;;;;4970997;28;20421;-74
2022/01/06 12:18:57;;;;;;;2.60;1.67;;;20.80;51.30;;;;;;4970943;28;20410;-74
2022/01/06 12:21:23;;;;;;;2.40;2.20;;;20.90;51.20;;;;;;4970506;28;20457;-74
2022/01/06 12:24:02;;;;;;;1.70;1.40;;;20.70;51.10;;;;;;4969785;28;20468;-74
2022/01/06 12:26:28;;;;;;;1.77;1.47;;;21.20;51.40;;;;;;4970082;28;20433;-74
2022/01/06 12:28:54;;;;;;;2.90;1.43;;;20.60;51.10;;;;;;4970528;28;20417;-74
2022/01/06 12:31:22;;;;;;;1.83;1.47;;;20.70;51.10;;;;;;4970435;28;20434;-74
2022/01/06 12:33:49;;;;;;;6.53;2.20;;;20.60;51.20;;;;;;4982812;28;20183;-74
2022/01/06 12:36:20;;;;;;;3.07;1.47;;;20.60;51.20;;;;;;4968783;28;20413;-74
2022/01/06 12:38:45;;;;;;;2.40;1.70;;;20.60;51.30;;;;;;4969583;28;20457;-74
2022/01/06 12:41:11;;;;;;;3.50;1.87;;;20.60;51.30;;;;;;4964647;28;20461;-74
2022/01/06 12:43:39;;;;;;;2.80;1.30;;;20.60;51.40;;;;;;4969935;28;20236;-74
2022/01/06 12:46:13;;;;;;;1.47;1.37;;;20.50;51.40;;;;;;4968791;28;20449;-74
2022/01/06 12:48:48;;;;;;;1.80;1.40;;;20.50;51.40;;;;;;4969969;28;20950;-73
2022/01/06 12:51:22;;;;;;;1.97;1.57;;;20.50;51.40;;;;;;4970417;28;20915;-75
2022/01/06 12:53:50;;;;;;;2.53;1.40;;;20.50;51.50;;;;;;4970286;28;20438;-74
2022/01/06 12:56:26;;;;;;;5.07;1.67;;;20.50;51.70;;;;;;4973795;28;20929;-75